Time;durP1;ratioP1;P1;durP2;ratioP2;P2;SDS_P1;SDS_P2;PMS_P1;PMS_P2;Temp;Humidity;BMP_temperature;BMP_pressure;BME280_temperature;BME280_humidity;BME280_pressure;Samples;Min_cycle;Max_cycle;Signal;HPM_P1;HPM_P2
2022/12/04 00:02:04;;;;;;;13.33;4.20;;;;;;;-7.49;100.00;101702.57;1787821;79;20975;-67
2022/12/04 00:04:47;;;;;;;11.90;3.90;;;;;;;-7.49;100.00;101708.25;1805102;79;21101;-67
2022/12/04 00:07:23;;;;;;;12.67;4.40;;;;;;;-7.49;100.00;101706.93;1812596;77;21026;-67
2022/12/04 00:09:56;;;;;;;11.57;4.27;;;;;;;-7.51;100.00;101703.00;1806241;77;21038;-66
2022/12/04 00:12:24;;;;;;;;;;;;;;;-7.51;100.00;101713.52;1818874;77;21057;-66
2022/12/04 00:14:52;;;;;;;9.00;3.57;;;;;;;-7.51;100.00;101706.08;1805729;77;20110;-67
2022/12/04 00:17:32;;;;;;;14.27;3.97;;;;;;;-7.55;100.00;101702.61;1798191;78;21070;-67
2022/12/04 00:20:06;;;;;;;9.68;4.10;;;;;;;-7.58;100.00;101696.06;1810161;77;21586;-67
2022/12/04 00:23:04;;;;;;;13.13;3.67;;;;;;;-7.59;100.00;101698.28;1807676;78;21073;-66
2022/12/04 00:25:40;;;;;;;10.60;3.43;;;;;;;-7.61;100.00;101691.28;1817951;77;21030;-67
2022/12/04 00:28:25;;;;;;;14.33;4.03;;;;;;;-7.61;100.00;101696.54;1823031;77;21484;-66
2022/12/04 00:31:06;;;;;;;15.53;3.97;;;;;;;-7.62;100.00;101698.31;1797455;79;21567;-66
2022/12/04 00:33:34;;;;;;;14.90;4.30;;;;;;;-7.65;100.00;101691.34;1811098;78;21041;-66
2022/12/04 00:36:08;;;;;;;8.37;3.40;;;;;;;-7.66;100.00;101684.33;1815973;78;21508;-67
2022/12/04 00:38:37;;;;;;;9.03;3.70;;;;;;;-7.67;100.00;101694.84;1813839;78;21500;-66
2022/12/04 00:41:07;;;;;;;13.27;4.30;;;;;;;-7.69;100.00;101694.86;1801981;79;21017;-67
2022/12/04 00:43:38;;;;;;;13.40;3.53;;;;;;;-7.69;100.00;101690.06;1807418;79;21045;-67
2022/12/04 00:46:07;;;;;;;7.20;3.10;;;;;;;-7.71;100.00;101691.83;1799136;79;21008;-67
2022/12/04 00:48:35;;;;;;;10.67;3.80;;;;;;;-7.72;100.00;101687.45;1824432;77;21089;-67
2022/12/04 00:51:08;;;;;;;10.43;3.77;;;;;;;-7.73;100.00;101679.16;1821163;77;20987;-66
2022/12/04 00:53:37;;;;;;;7.60;3.10;;;;;;;-7.75;100.00;101692.30;1806299;79;20987;-68
2022/12/04 00:56:11;;;;;;;12.23;3.63;;;;;;;-7.78;100.00;101680.95;1806493;78;21488;-67
2022/12/04 00:58:40;;;;;;;8.53;3.40;;;;;;;-7.79;100.00;101684.45;1783586;79;21045;-66
2022/12/04 01:01:20;;;;;;;11.30;3.40;;;;;;;-7.81;100.00;101673.96;1826073;77;21022;-66
2022/12/04 01:03:55;;;;;;;8.53;3.03;;;;;;;-7.83;100.00;101683.16;1814694;78;21030;-67
2022/12/04 01:06:33;;;;;;;13.05;3.70;;;;;;;-7.84;100.00;101684.52;1807716;77;21484;-67
2022/12/04 01:09:03;;;;;;;15.50;3.80;;;;;;;-7.86;100.00;101691.09;1815595;78;21066;-68
2022/12/04 01:11:31;;;;;;;10.70;4.00;;;;;;;-7.87;100.00;101685.40;1809145;78;21002;-67
2022/12/04 01:13:58;;;;;;;8.40;2.83;;;;;;;-7.88;100.00;101690.24;1815498;78;21022;-67
2022/12/04 01:16:33;;;;;;;7.27;3.00;;;;;;;-7.89;100.00;101696.81;1825514;77;21503;-66
2022/12/04 01:19:02;;;;;;;7.70;3.23;;;;;;;-7.91;100.00;101702.52;1800264;78;21026;-67
2022/12/04 01:21:30;;;;;;;9.03;3.63;;;;;;;-7.93;100.00;101697.70;1806125;79;20990;-67
2022/12/04 01:24:02;;;;;;;6.43;3.13;;;;;;;-7.95;100.00;101697.74;1796217;78;21050;-67
2022/12/04 01:26:40;;;;;;;11.07;3.50;;;;;;;-7.95;100.00;101702.99;1794995;78;21001;-67
2022/12/04 01:29:19;;;;;;;9.70;3.70;;;;;;;-7.97;100.00;101702.11;1795213;78;21064;-67
2022/12/04 01:32:00;;;;;;;6.10;2.80;;;;;;;-7.99;100.00;101701.70;1806081;79;21069;-67
2022/12/04 01:34:33;;;;;;;;;;;;;;;-8.01;100.00;101698.64;1805633;78;21018;-67
2022/12/04 01:37:01;;;;;;;9.17;2.87;;;;;;;-8.02;100.00;101701.27;1795964;79;20121;-68
2022/12/04 01:39:28;;;;;;;5.80;3.03;;;;;;;-8.04;100.00;101699.11;1793415;79;21480;-68
2022/12/04 01:42:01;;;;;;;6.53;3.10;;;;;;;-8.06;100.00;101703.50;1810740;78;21503;-68
2022/12/04 01:44:37;;;;;;;6.60;2.70;;;;;;;-8.07;100.00;101700.47;1808823;78;21046;-66
2022/12/04 01:47:05;;;;;;;7.70;2.83;;;;;;;-8.11;100.00;101698.31;1813358;78;21481;-67
2022/12/04 01:49:54;;;;;;;6.57;3.47;;;;;;;-8.11;100.00;101702.24;1812895;78;21061;-66
2022/12/04 01:52:25;;;;;;;6.87;2.90;;;;;;;-8.12;100.00;101706.19;1806595;77;21011;-66
2022/12/04 01:54:56;;;;;;;5.87;3.23;;;;;;;-8.15;100.00;101704.89;1795184;78;21019;-67
2022/12/04 01:57:39;;;;;;;7.30;2.92;;;;;;;-8.16;100.00;101720.20;1803781;78;20979;-67
2022/12/04 02:00:12;;;;;;;11.95;3.42;;;;;;;-8.19;100.00;101709.30;1808998;77;21023;-66
2022/12/04 06:11:22;;;;;;;5.53;2.87;;;;;;;-8.67;100.00;101894.52;1817835;79;23443;-73
2022/12/04 06:13:51;;;;;;;8.77;2.90;;;;;;;-8.60;100.00;101914.61;1794077;80;21025;-73
2022/12/04 06:16:29;;;;;;;3.60;2.47;;;;;;;-8.55;100.00;101936.91;1793674;80;20990;-72
2022/12/04 06:19:00;;;;;;;7.13;2.17;;;;;;;-8.49;100.00;101942.58;1794048;80;21061;-73
2022/12/04 06:21:29;;;;;;;5.30;2.47;;;;;;;-8.45;100.00;101949.55;1793579;80;21006;-72
2022/12/04 06:23:57;;;;;;;7.07;3.00;;;;;;;-8.42;100.00;101956.95;1793138;80;20974;-72
2022/12/04 06:26:25;;;;;;;5.23;2.60;;;;;;;-8.38;100.00;101964.82;1793046;80;21037;-72
2022/12/04 06:28:56;;;;;;;4.97;2.47;;;;;;;-8.35;100.00;101972.70;1792930;80;21014;-72
2022/12/04 06:31:27;;;;;;;4.35;2.05;;;;;;;-8.32;100.00;101984.48;1793097;80;21025;-73
2022/12/04 06:33:56;;;;;;;3.90;2.30;;;;;;;-8.28;100.00;101982.30;1792996;80;21021;-72
2022/12/04 06:36:28;;;;;;;5.27;1.97;;;;;;;-8.24;100.00;101988.83;1792432;80;21503;-73
2022/12/04 06:38:57;;;;;;;5.03;1.90;;;;;;;-8.16;100.00;101991.88;1792700;80;21025;-73
2022/12/04 06:41:31;;;;;;;6.00;2.20;;;;;;;-8.10;100.00;102003.23;1793141;80;20973;-72
2022/12/04 06:44:02;;;;;;;3.83;2.13;;;;;;;-8.05;100.00;102005.41;1792630;80;20994;-71
2022/12/04 06:46:35;;;;;;;8.47;2.40;;;;;;;-8.00;100.00;102011.98;1793100;80;21008;-74
2022/12/04 06:49:02;;;;;;;8.50;2.80;;;;;;;-7.96;100.00;102015.02;1792882;80;21068;-73
2022/12/04 07:03:36;;;;;;;6.80;2.97;;;;;;;-7.13;100.00;102034.34;1856586;77;22636;-73
2022/12/04 07:06:28;;;;;;;13.03;2.33;;;;;;;-7.05;100.00;102063.21;1828948;78;21041;-72
2022/12/04 07:09:06;;;;;;;3.87;2.60;;;;;;;-6.99;100.00;102060.56;1828810;78;21053;-72
2022/12/04 07:11:33;;;;;;;3.93;2.40;;;;;;;-6.98;100.00;102087.27;1828450;78;21090;-73
2022/12/04 07:14:14;;;;;;;4.97;2.37;;;;;;;-6.93;100.00;102096.02;1828656;78;21022;-72
2022/12/04 07:16:57;;;;;;;6.13;2.23;;;;;;;-6.91;100.00;102103.90;1824280;78;21081;-73
2022/12/04 07:19:24;;;;;;;3.80;2.40;;;;;;;-6.82;100.00;102126.20;1828657;78;21018;-72
2022/12/04 07:21:52;;;;;;;6.37;2.40;;;;;;;-6.74;100.00;102140.64;1829201;78;21029;-75
2022/12/04 07:24:19;;;;;;;3.47;2.27;;;;;;;-6.67;100.00;102155.51;1828852;78;21045;-73
2022/12/04 07:26:47;;;;;;;7.60;2.00;;;;;;;-6.66;100.00;102165.13;1829373;78;21010;-73
2022/12/04 07:29:14;;;;;;;3.27;2.30;;;;;;;-6.64;100.00;102180.92;1828759;78;21026;-73
2022/12/04 07:31:43;;;;;;;4.50;2.03;;;;;;;-6.58;100.00;102185.71;1829201;78;21009;-73
2022/12/04 07:34:10;;;;;;;6.93;2.40;;;;;;;-6.47;100.00;102196.63;1829085;78;20999;-74
2022/12/04 07:36:38;;;;;;;5.60;2.10;;;;;;;-6.32;100.00;102203.98;1829389;78;20970;-74
2022/12/04 07:39:05;;;;;;;4.33;2.43;;;;;;;-6.13;100.00;102213.05;1829256;78;21480;-75
2022/12/04 07:41:34;;;;;;;5.33;2.30;;;;;;;-6.02;100.00;102217.81;1828776;78;21018;-74
2022/12/04 07:44:03;;;;;;;5.87;2.93;;;;;;;-5.93;100.00;102230.02;1828276;78;21018;-74
2022/12/04 07:46:31;;;;;;;4.77;2.03;;;;;;;-5.77;100.00;102240.85;1829247;78;21064;-74
2022/12/04 07:48:59;;;;;;;2.43;1.97;;;;;;;-5.66;100.00;102243.84;1828989;78;21543;-74
2022/12/04 07:51:28;;;;;;;2.83;2.13;;;;;;;-5.57;100.00;102259.58;1829254;78;21053;-75
2022/12/04 07:54:00;;;;;;;7.93;2.63;;;;;;;-5.45;100.00;102270.02;1829058;78;20975;-75
2022/12/04 07:56:27;;;;;;;5.37;2.50;;;;;;;-5.37;100.00;102282.66;1829726;78;21475;-74
2022/12/04 07:58:54;;;;;;;6.20;2.70;;;;;;;-5.24;100.00;102284.77;1829467;78;21034;-75
2022/12/04 08:01:22;;;;;;;5.27;3.13;;;;;;;-5.05;100.00;102289.38;1797862;78;20956;-74
2022/12/04 08:03:51;;;;;;;5.17;2.57;;;;;;;-4.85;100.00;102293.14;1815327;78;21089;-76
2022/12/04 08:06:19;;;;;;;5.40;2.80;;;;;;;-4.77;100.00;102311.52;1815460;79;21108;-74
2022/12/04 08:08:47;;;;;;;8.77;2.90;;;;;;;-4.72;100.00;102318.09;1815489;79;21014;-74
2022/12/04 08:11:16;;;;;;;7.50;2.70;;;;;;;-4.69;100.00;102326.84;1815562;79;21440;-73
2022/12/04 08:13:44;;;;;;;6.67;2.47;;;;;;;-4.64;100.00;102335.59;1814936;79;20999;-75
2022/12/04 08:16:11;;;;;;;6.03;2.40;;;;;;;-4.55;100.00;102337.25;1814716;79;21021;-74
2022/12/04 08:18:40;;;;;;;4.77;2.77;;;;;;;-4.52;100.00;102339.83;1814439;79;21097;-75
2022/12/04 08:21:12;;;;;;;4.23;2.53;;;;;;;-4.43;100.00;102345.45;1814655;79;21581;-73
2022/12/04 08:23:41;;;;;;;8.65;2.50;;;;;;;-4.33;100.00;102344.45;1814828;79;20975;-75
2022/12/04 08:26:08;;;;;;;17.60;3.87;;;;;;;-4.25;100.00;102341.70;1814762;79;21013;-74
2022/12/04 08:28:36;;;;;;;13.93;3.43;;;;;;;-4.23;100.00;102347.41;1814941;79;21015;-74
2022/12/04 08:31:06;;;;;;;10.43;3.50;;;;;;;-4.12;100.00;102341.98;1814973;79;21555;-74
2022/12/04 08:33:36;;;;;;;8.33;3.10;;;;;;;-4.07;100.00;102347.19;1814951;79;21046;-73
2022/12/04 08:36:09;;;;;;;4.83;2.77;;;;;;;-4.03;100.00;102347.14;1814483;79;21002;-74
2022/12/04 08:38:37;;;;;;;14.83;4.60;;;;;;;-4.00;100.00;102344.92;1814457;79;21053;-74
2022/12/04 08:41:06;;;;;;;14.13;4.73;;;;;;;-3.90;100.00;102349.61;1814790;79;21073;-74
2022/12/04 08:43:34;;;;;;;18.57;5.03;;;;;;;-3.84;100.00;102345.12;1814423;79;21468;-76
2022/12/04 08:46:04;;;;;;;17.27;4.57;;;;;;;-3.93;100.00;102349.22;1814756;79;21038;-75
2022/12/04 08:48:32;;;;;;;17.27;4.40;;;;;;;-4.01;100.00;102355.91;1814700;79;21030;-75
2022/12/04 08:50:59;;;;;;;10.13;3.63;;;;;;;-3.91;100.00;102351.39;1814888;79;21038;-74
2022/12/04 08:53:26;;;;;;;12.07;3.30;;;;;;;-3.69;100.00;102353.72;1814578;79;21017;-74
2022/12/04 08:55:54;;;;;;;7.37;2.90;;;;;;;-3.60;100.00;102354.89;1814549;79;21026;-75
2022/12/04 08:58:21;;;;;;;6.40;3.07;;;;;;;-3.48;100.00;102341.48;1814708;79;21032;-73
2022/12/04 09:00:48;;;;;;;8.53;2.83;;;;;;;-3.40;100.00;102328.57;1814934;79;21045;-75
2022/12/04 09:03:19;;;;;;;9.80;3.20;;;;;;;-3.32;100.00;102333.30;1819993;79;21117;-75
2022/12/04 09:05:47;;;;;;;8.27;3.00;;;;;;;-3.19;100.00;102333.95;1823689;79;21010;-74
2022/12/04 09:08:15;;;;;;;7.50;3.10;;;;;;;-3.06;100.00;102332.39;1823148;79;21026;-74
2022/12/04 09:10:43;;;;;;;9.30;3.40;;;;;;;-2.91;100.00;102333.88;1823423;79;21030;-73
2022/12/04 09:13:10;;;;;;;8.33;2.87;;;;;;;-2.87;100.00;102340.88;1823480;79;21029;-75
2022/12/04 09:15:59;;;;;;;9.70;3.27;;;;;;;-2.81;100.00;102337.23;1823269;79;21010;-75
2022/12/04 09:18:26;;;;;;;7.30;3.07;;;;;;;-2.71;100.00;102340.14;1823211;79;20994;-75
2022/12/04 09:20:57;;;;;;;8.80;3.23;;;;;;;-2.78;100.00;102345.56;1823253;79;21029;-73
2022/12/04 09:23:25;;;;;;;16.00;3.70;;;;;;;-2.87;100.00;102343.53;1823463;79;20999;-75
2022/12/04 09:25:52;;;;;;;12.43;3.60;;;;;;;-3.08;100.00;102340.81;1823188;79;21042;-76
2022/12/04 09:28:19;;;;;;;15.83;5.50;;;;;;;-3.12;100.00;102333.81;1823464;79;21002;-74
2022/12/04 09:31:04;;;;;;;13.93;4.60;;;;;;;-3.11;100.00;102336.89;1823068;79;21465;-74
2022/12/04 09:33:31;;;;;;;8.17;3.03;;;;;;;-3.08;100.00;102330.66;1823490;79;20983;-74
2022/12/04 09:35:59;;;;;;;12.93;3.80;;;;;;;-2.96;100.00;102328.25;1822797;79;20983;-75
2022/12/04 09:38:28;;;;;;;6.67;3.07;;;;;;;-2.82;100.00;102321.37;1823370;79;21014;-74
2022/12/04 09:41:36;;;;;;;12.37;3.67;;;;;;;-2.74;100.00;102322.11;1823061;79;21464;-74
2022/12/04 09:44:09;;;;;;;12.37;4.23;;;;;;;-2.65;100.00;102321.06;1823178;79;21015;-74
2022/12/04 09:46:47;;;;;;;5.83;2.87;;;;;;;-2.62;100.00;102320.55;1822535;79;21066;-75
2022/12/04 09:49:18;;;;;;;6.57;2.83;;;;;;;-2.66;100.00;102326.79;1816225;79;21057;-75
2022/12/04 09:52:10;;;;;;;6.47;3.00;;;;;;;-2.70;100.00;102325.11;1823168;79;20995;-75
2022/12/04 09:54:41;;;;;;;7.77;3.23;;;;;;;-2.72;100.00;102324.28;1723746;83;21038;-75
2022/12/04 09:57:18;;;;;;;7.93;3.00;;;;;;;-2.84;100.00;102314.78;1723781;83;21066;-75
2022/12/04 09:59:51;;;;;;;6.73;3.00;;;;;;;-2.90;100.00;102322.86;1611367;89;21074;-75
2022/12/04 10:02:42;;;;;;;9.38;3.92;;;;;;;-2.98;100.00;102320.33;1609395;88;21154;-75
2022/12/04 10:05:23;;;;;;;5.80;3.47;;;;;;;-2.95;100.00;102319.42;1690000;80;21061;-76
2022/12/04 10:08:34;;;;;;;6.90;3.23;;;;;;;-2.91;100.00;102325.06;1754967;80;21073;-73
2022/12/04 10:11:43;;;;;;;4.37;2.93;;;;;;;-3.04;100.00;102322.24;1788139;80;21586;-76
2022/12/04 10:14:39;;;;;;;8.27;3.20;;;;;;;-3.20;100.00;102325.16;1784275;80;21002;-77
2022/12/04 10:17:32;;;;;;;8.90;2.80;;;;;;;-3.24;100.00;102318.14;1788043;80;21065;-74
2022/12/04 10:20:30;;;;;;;7.58;3.25;;;;;;;-3.26;100.00;102321.27;1787812;80;21015;-75
2022/12/04 10:23:38;;;;;;;7.57;3.23;;;;;;;-3.29;100.00;102326.64;1788102;80;21026;-74
2022/12/04 10:26:10;;;;;;;8.20;3.20;;;;;;;-3.22;100.00;102315.47;1779159;80;21025;-75
2022/12/04 10:28:40;;;;;;;5.60;2.70;;;;;;;-3.12;100.00;102312.63;1787943;80;20975;-76
2022/12/04 10:31:11;;;;;;;9.23;3.50;;;;;;;-3.06;100.00;102313.86;1787772;80;21026;-75
2022/12/04 10:34:08;;;;;;;9.40;3.13;;;;;;;-3.00;100.00;102308.04;1787773;80;21023;-75
2022/12/04 10:36:36;;;;;;;8.20;3.10;;;;;;;-3.13;100.00;102310.05;1755804;80;21464;-75
2022/12/04 10:39:16;;;;;;;8.43;3.60;;;;;;;-3.22;100.00;102299.59;1719754;83;21112;-77
2022/12/04 10:41:55;;;;;;;10.57;3.47;;;;;;;-3.26;100.00;102313.33;1712313;82;21537;-75
2022/12/04 10:44:23;;;;;;;7.93;3.27;;;;;;;-3.14;100.00;102306.96;1750704;82;21036;-76
2022/12/04 10:46:54;;;;;;;9.40;3.50;;;;;;;-3.03;100.00;102308.09;1724374;83;21018;-75
2022/12/04 10:49:28;;;;;;;7.07;3.70;;;;;;;-3.06;100.00;102305.92;1724469;83;21030;-75
2022/12/04 10:51:56;;;;;;;7.03;3.63;;;;;;;-3.19;100.00;102304.84;1723623;83;21527;-74
2022/12/04 10:54:47;;;;;;;7.67;3.53;;;;;;;-3.25;100.00;102309.80;1724653;83;21042;-74
2022/12/04 10:57:14;;;;;;;10.90;3.90;;;;;;;-3.24;100.00;102312.84;1750713;82;21084;-76
2022/12/04 10:59:55;;;;;;;9.40;3.30;;;;;;;-3.18;100.00;102311.44;1724195;83;21046;-75
2022/12/04 11:02:33;;;;;;;7.17;3.47;;;;;;;-3.07;100.00;102305.95;1724407;83;21018;-74
2022/12/04 11:05:06;;;;;;;11.33;3.70;;;;;;;-3.03;100.00;102308.95;1738912;82;21059;-75
2022/12/04 11:07:38;;;;;;;10.43;3.93;;;;;;;-3.03;100.00;102309.41;1739450;82;21058;-75
2022/12/04 11:10:40;;;;;;;12.03;3.77;;;;;;;-2.95;100.00;102306.18;1738834;82;21015;-75
2022/12/04 11:13:15;;;;;;;10.37;3.77;;;;;;;-2.92;100.00;102303.45;1758588;80;21559;-74
2022/12/04 11:15:49;;;;;;;10.77;3.77;;;;;;;-2.89;100.00;102306.91;1739532;82;21090;-75
2022/12/04 11:18:25;;;;;;;7.27;2.90;;;;;;;-2.81;100.00;102304.14;1755836;82;21043;-75
2022/12/04 11:21:18;;;;;;;6.50;3.10;;;;;;;-2.85;100.00;102306.44;1755959;82;21027;-76
2022/12/04 11:23:49;;;;;;;7.03;3.40;;;;;;;-2.91;100.00;102312.69;1755836;82;21043;-74
2022/12/04 11:26:20;;;;;;;9.10;3.13;;;;;;;-2.94;100.00;102314.09;1755768;82;21472;-75
2022/12/04 11:28:51;;;;;;;7.17;3.23;;;;;;;-2.99;100.00;102315.06;1735409;82;21078;-75
2022/12/04 11:31:20;;;;;;;6.17;2.93;;;;;;;-3.11;100.00;102316.17;1755950;82;21512;-74
2022/12/04 11:34:04;;;;;;;7.83;3.33;;;;;;;-3.24;100.00;102304.91;1755711;82;21445;-74
2022/12/04 11:36:35;;;;;;;10.80;3.30;;;;;;;-3.23;100.00;102304.03;1735968;82;21074;-74
2022/12/04 11:39:33;;;;;;;9.67;3.60;;;;;;;-3.21;100.00;102293.41;1755855;82;21445;-75
2022/12/04 11:42:03;;;;;;;6.17;3.40;;;;;;;-3.05;100.00;102294.87;1755880;82;21047;-74
2022/12/04 11:44:34;;;;;;;6.23;3.40;;;;;;;-2.61;100.00;102289.17;1755916;80;21520;-75
2022/12/04 11:47:03;;;;;;;8.60;3.27;;;;;;;-2.24;100.00;102292.36;1755818;82;21031;-75
2022/12/04 11:49:31;;;;;;;10.43;4.07;;;;;;;-2.06;100.00;102293.73;1755809;82;20999;-74
2022/12/04 11:52:16;;;;;;;13.37;4.00;;;;;;;-1.84;100.00;102291.90;1756383;82;21552;-74
2022/12/04 11:55:02;;;;;;;8.33;3.47;;;;;;;-1.44;100.00;102296.25;1755178;81;21023;-75
2022/12/04 11:57:53;;;;;;;9.17;3.40;;;;;;;-1.15;100.00;102293.72;1755945;81;21010;-74
2022/12/04 12:00:22;;;;;;;9.20;3.67;;;;;;;-0.77;100.00;102293.12;1806187;79;21027;-74
2022/12/04 12:03:18;;;;;;;9.77;3.80;;;;;;;-0.66;100.00;102295.47;1806954;79;21035;-75
2022/12/04 12:06:20;;;;;;;15.20;4.53;;;;;;;-0.63;100.00;102299.38;1807005;79;21023;-74
2022/12/04 12:08:59;;;;;;;16.30;4.20;;;;;;;-0.46;100.00;102299.34;1807232;79;21035;-74
2022/12/04 12:11:43;;;;;;;11.73;3.83;;;;;;;-0.46;100.00;102299.34;1806979;79;21031;-74
2022/12/04 12:14:22;;;;;;;11.60;4.00;;;;;;;-0.53;100.00;102303.09;1807037;79;21026;-72
2022/12/04 12:17:33;;;;;;;7.57;3.57;;;;;;;-0.67;100.00;102303.52;1807072;79;21023;-75
2022/12/04 12:20:09;;;;;;;9.70;3.20;;;;;;;-0.84;100.00;102311.47;1807142;79;21019;-76
2022/12/04 12:22:54;;;;;;;14.17;3.97;;;;;;;-0.94;100.00;102306.45;1806761;79;21074;-74
2022/12/04 12:25:43;;;;;;;12.77;3.10;;;;;;;-1.03;100.00;102319.05;1807210;79;21057;-75
2022/12/04 12:28:46;;;;;;;16.07;4.60;;;;;;;-1.14;100.00;102322.46;1807133;79;21024;-74
2022/12/04 12:31:40;;;;;;;8.78;3.72;;;;;;;-1.00;100.00;102311.48;1807314;79;21019;-75
2022/12/04 12:34:17;;;;;;;8.97;3.43;;;;;;;-0.98;100.00;102317.63;1806971;79;21062;-74
2022/12/04 12:36:48;;;;;;;5.17;3.00;;;;;;;-0.92;100.00;102323.22;1807438;79;21007;-74
2022/12/04 12:39:22;;;;;;;12.30;3.93;;;;;;;-0.86;100.00;102327.92;1807394;79;21010;-75
2022/12/04 12:41:55;;;;;;;8.23;3.43;;;;;;;-0.87;100.00;102321.31;1806796;79;21067;-75
2022/12/04 12:44:42;;;;;;;7.35;3.47;;;;;;;-1.03;100.00;102331.47;1807298;79;21043;-74
2022/12/04 12:47:14;;;;;;;10.07;3.80;;;;;;;-1.18;100.00;102328.31;1807478;79;21085;-74
2022/12/04 12:50:05;;;;;;;7.20;3.30;;;;;;;-1.22;100.00;102324.43;1807265;79;21035;-73
2022/12/04 12:52:50;;;;;;;12.93;4.17;;;;;;;-1.22;100.00;102331.07;1807188;79;21042;-74
2022/12/04 12:55:30;;;;;;;10.57;4.00;;;;;;;-1.27;100.00;102343.16;1807163;79;21054;-74
2022/12/04 12:58:08;;;;;;;11.10;3.90;;;;;;;-1.44;100.00;102346.20;1807290;79;21035;-74
2022/12/04 13:00:48;;;;;;;7.23;3.33;;;;;;;-1.63;100.00;102346.23;1806910;79;21465;-74
2022/12/04 13:03:57;;;;;;;12.07;4.10;;;;;;;-1.85;100.00;102359.13;1807394;79;21043;-74
2022/12/04 13:06:32;;;;;;;17.40;4.33;;;;;;;-2.06;100.00;102358.68;1823290;79;21014;-74
2022/12/04 13:09:10;;;;;;;10.23;4.17;;;;;;;-2.55;100.00;102358.36;1823558;79;21088;-75
2022/12/04 13:11:37;;;;;;;11.40;4.30;;;;;;;-2.81;100.00;102366.83;1823638;78;21049;-75
2022/12/04 13:14:04;;;;;;;11.27;4.00;;;;;;;-2.99;100.00;102361.39;1823520;78;21112;-75
2022/12/04 13:16:43;;;;;;;14.63;4.30;;;;;;;-3.19;100.00;102364.39;1794533;79;21014;-74
2022/12/04 13:19:42;;;;;;;10.33;3.50;;;;;;;-3.38;100.00;102369.99;1823581;79;21026;-75
2022/12/04 13:22:36;;;;;;;11.13;4.37;;;;;;;-3.50;100.00;102367.08;1823984;78;21073;-76
2022/12/04 13:25:12;;;;;;;;;;;;;;;-3.53;100.00;102372.87;1826632;79;21029;-74
2022/12/04 13:27:47;;;;;;;12.27;3.77;;;;;;;-3.56;100.00;102377.77;1823926;79;20098;-74
2022/12/04 13:30:22;;;;;;;11.40;4.00;;;;;;;-3.64;100.00;102376.55;1823883;79;21026;-75
2022/12/04 13:33:21;;;;;;;6.37;2.55;;;;;;;-3.83;100.00;102379.03;1823917;79;21057;-74
2022/12/04 13:36:28;;;;;;;6.07;3.03;;;;;;;-4.08;100.00;102375.39;1823890;78;21705;-75
2022/12/04 13:39:20;;;;;;;7.77;3.60;;;;;;;-4.33;100.00;102381.89;1823574;79;21534;-74
2022/12/04 13:41:49;;;;;;;8.27;3.60;;;;;;;-4.58;100.00;102376.89;1823749;79;20970;-75
2022/12/04 13:44:20;;;;;;;19.10;4.50;;;;;;;-4.77;100.00;102377.52;1818975;79;21072;-74
2022/12/04 13:46:55;;;;;;;11.67;3.50;;;;;;;-4.92;100.00;102371.06;1823168;79;21010;-74
2022/12/04 13:49:37;;;;;;;14.03;3.93;;;;;;;-5.04;100.00;102372.07;1823192;79;21054;-73
2022/12/04 13:52:13;;;;;;;12.58;3.90;;;;;;;-5.17;100.00;102376.14;1823538;79;21018;-75
2022/12/04 13:54:40;;;;;;;8.33;3.13;;;;;;;-5.28;100.00;102378.42;1819004;79;21076;-74
2022/12/04 13:57:20;;;;;;;12.13;3.60;;;;;;;-5.35;100.00;102378.91;1823281;78;20977;-75
2022/12/04 13:59:48;;;;;;;5.60;3.23;;;;;;;-5.41;100.00;102377.65;1822692;79;21022;-74
2022/12/04 14:02:33;;;;;;;12.40;4.20;;;;;;;-5.48;100.00;102381.22;1823566;78;20995;-74
2022/12/04 14:05:09;;;;;;;12.30;2.73;;;;;;;-5.54;100.00;102384.33;1817415;79;21043;-74
2022/12/04 14:07:46;;;;;;;14.63;3.80;;;;;;;-5.60;100.00;102385.67;1814362;79;21019;-74
2022/12/04 14:10:19;;;;;;;11.00;3.60;;;;;;;-5.64;100.00;102388.36;1790911;79;21077;-74
2022/12/04 14:13:03;;;;;;;10.10;3.30;;;;;;;-5.69;100.00;102387.52;1813910;79;21066;-75
2022/12/04 18:39:44;;;;;;;8.03;3.40;;;;;;;-8.03;100.00;102287.22;1789829;79;22254;-73
2022/12/04 18:42:12;;;;;;;7.90;3.37;;;;;;;-7.97;100.00;102298.62;1827580;78;21016;-72
2022/12/04 18:44:39;;;;;;;4.20;3.00;;;;;;;-7.96;100.00;102316.14;1793473;80;21034;-73
2022/12/04 18:47:06;;;;;;;7.37;3.03;;;;;;;-7.96;100.00;102315.69;1793034;80;21455;-73
2022/12/04 18:49:33;;;;;;;4.27;2.80;;;;;;;-7.96;100.00;102323.57;1792864;80;20998;-72
2022/12/04 18:52:01;;;;;;;4.77;2.67;;;;;;;-7.96;100.00;102324.02;1793235;80;20993;-73
2022/12/04 18:54:28;;;;;;;5.40;2.93;;;;;;;-7.97;100.00;102321.80;1798407;80;21049;-73
2022/12/04 18:56:56;;;;;;;5.43;2.90;;;;;;;-7.98;100.00;102329.67;1798091;80;21483;-72
2022/12/04 18:59:24;;;;;;;8.83;3.00;;;;;;;-7.98;100.00;102330.98;1826892;78;21001;-72
2022/12/04 19:01:52;;;;;;;7.23;2.97;;;;;;;-8.01;100.00;102332.73;1827335;78;20980;-73
2022/12/04 19:04:20;;;;;;;5.37;2.47;;;;;;;-8.02;100.00;102331.00;1827019;78;21043;-73
2022/12/04 19:06:52;;;;;;;4.53;2.97;;;;;;;-8.03;100.00;102325.75;1827087;78;20972;-72
2022/12/04 19:09:23;;;;;;;8.93;3.23;;;;;;;-8.05;100.00;102322.25;1826839;78;20981;-72
2022/12/04 19:11:50;;;;;;;5.23;2.97;;;;;;;-8.05;100.00;102329.67;1826958;78;20938;-73
2022/12/04 19:14:18;;;;;;;5.43;2.80;;;;;;;-8.05;100.00;102324.42;1826653;78;21063;-73
2022/12/04 19:16:45;;;;;;;8.03;3.40;;;;;;;-8.08;100.00;102325.72;1826917;78;21048;-73
2022/12/04 19:19:13;;;;;;;5.83;3.00;;;;;;;-8.10;100.00;102322.22;1826953;78;20996;-73
2022/12/04 19:21:40;;;;;;;6.77;3.20;;;;;;;-8.10;100.00;102326.61;1827273;78;21046;-72
2022/12/04 19:24:08;;;;;;;4.73;2.97;;;;;;;-8.13;100.00;102322.20;1826668;78;21064;-73
2022/12/04 19:26:35;;;;;;;7.13;2.97;;;;;;;-8.13;100.00;102316.95;1827139;78;21005;-73
2022/12/04 19:29:03;;;;;;;8.23;3.43;;;;;;;-8.15;100.00;102316.08;1826725;78;21004;-72
2022/12/04 19:31:35;;;;;;;8.17;3.10;;;;;;;-8.16;100.00;102313.45;1827040;78;21000;-72
2022/12/04 19:34:02;;;;;;;4.60;2.50;;;;;;;-8.18;100.00;102312.13;1826977;78;21534;-72
2022/12/04 19:36:30;;;;;;;5.77;3.30;;;;;;;-8.20;100.00;102299.44;1826984;78;21008;-73
2022/12/04 19:38:57;;;;;;;4.23;2.40;;;;;;;-8.23;100.00;102306.88;1819726;78;21103;-72
2022/12/04 19:41:28;;;;;;;5.17;3.00;;;;;;;-8.23;100.00;102299.45;1814610;79;21044;-72
2022/12/04 19:43:58;;;;;;;6.67;3.03;;;;;;;-8.25;100.00;102306.42;1814726;79;21040;-73
2022/12/04 19:46:29;;;;;;;8.77;3.23;;;;;;;-8.28;100.00;102299.42;1815002;78;20962;-71
2022/12/04 19:49:00;;;;;;;7.30;2.80;;;;;;;-8.30;100.00;102305.12;1814879;79;20973;-72
2022/12/04 19:51:30;;;;;;;6.20;2.80;;;;;;;-8.32;100.00;102302.92;1814790;79;21029;-73
2022/12/04 19:53:57;;;;;;;8.07;3.63;;;;;;;-8.35;100.00;102298.97;1814347;79;21021;-72
2022/12/04 19:56:25;;;;;;;6.47;3.00;;;;;;;-8.35;100.00;102302.91;1814550;79;21008;-71
2022/12/04 19:58:53;;;;;;;3.30;2.13;;;;;;;-8.37;100.00;102303.34;1814533;79;21459;-71
2022/12/04 20:01:24;;;;;;;4.27;2.70;;;;;;;-8.37;100.00;102306.38;1814918;79;20997;-72
2022/12/04 20:03:50;;;;;;;8.40;2.70;;;;;;;-8.39;100.00;102306.41;1815770;79;21001;-71
2022/12/04 20:06:21;;;;;;;3.80;2.43;;;;;;;-8.41;100.00;102305.08;1816031;79;21060;-72
2022/12/04 20:08:59;;;;;;;5.37;2.98;;;;;;;-8.44;100.00;102294.60;1814930;79;20982;-72
2022/12/04 20:11:28;;;;;;;3.37;2.50;;;;;;;-8.46;100.00;102293.73;1814506;79;21013;-73
2022/12/04 20:13:55;;;;;;;4.20;2.23;;;;;;;-8.46;100.00;102288.92;1814811;79;20986;-72
2022/12/04 20:16:25;;;;;;;6.43;3.10;;;;;;;-8.46;100.00;102279.30;1814639;79;21041;-74
2022/12/04 20:18:54;;;;;;;5.73;2.50;;;;;;;-8.48;100.00;102278.83;1814747;79;21060;-72
2022/12/04 20:21:25;;;;;;;3.73;2.50;;;;;;;-8.51;100.00;102284.95;1814474;79;21024;-73
2022/12/04 20:23:50;;;;;;;8.33;2.97;;;;;;;-8.52;100.00;102279.70;1813708;78;21001;-73
2022/12/04 20:26:20;;;;;;;5.40;2.90;;;;;;;-8.54;100.00;102278.38;1814333;79;21056;-73
2022/12/04 20:28:47;;;;;;;5.53;2.60;;;;;;;-8.56;100.00;102282.75;1814777;79;21004;-73
2022/12/04 20:31:24;;;;;;;4.20;2.57;;;;;;;-8.58;100.00;102273.14;1814769;78;21013;-71
2022/12/04 20:33:53;;;;;;;4.77;2.80;;;;;;;-8.59;100.00;102277.48;1814590;79;21001;-72